sensor_id;sensor_type;location;lat;lon;timestamp;pressure;altitude;pressure_sealevel;temperature;humidity
65872;BME280;52653;50.080;21.992;2023-04-22T00:01:26;98976.19;;;4.58;76.80
65872;BME280;52653;50.080;21.992;2023-04-22T00:04:04;98978.40;;;4.56;76.84
65872;BME280;52653;50.080;21.992;2023-04-22T00:06:40;98976.30;;;4.54;76.78
65872;BME280;52653;50.080;21.992;2023-04-22T00:09:26;98974.90;;;4.53;77.03
65872;BME280;52653;50.080;21.992;2023-04-22T00:12:09;98971.58;;;4.51;77.16
65872;BME280;52653;50.080;21.992;2023-04-22T00:14:45;98971.02;;;4.48;77.23
65872;BME280;52653;50.080;21.992;2023-04-22T00:17:28;98973.27;;;4.46;77.55
65872;BME280;52653;50.080;21.992;2023-04-22T00:20:21;98974.24;;;4.43;77.61
65872;BME280;52653;50.080;21.992;2023-04-22T00:23:14;98981.50;;;4.39;78.00
65872;BME280;52653;50.080;21.992;2023-04-22T00:25:59;98983.70;;;4.35;78.14
65872;BME280;52653;50.080;21.992;2023-04-22T00:28:46;98981.40;;;4.32;78.56
65872;BME280;52653;50.080;21.992;2023-04-22T00:31:39;98979.08;;;4.27;78.82
65872;BME280;52653;50.080;21.992;2023-04-22T00:34:32;98977.48;;;4.24;78.57
65872;BME280;52653;50.080;21.992;2023-04-22T00:37:24;98977.96;;;4.21;78.64
65872;BME280;52653;50.080;21.992;2023-04-22T00:40:18;98979.27;;;4.17;78.75
65872;BME280;52653;50.080;21.992;2023-04-22T00:42:51;98975.77;;;4.13;78.78
65872;BME280;52653;50.080;21.992;2023-04-22T00:45:37;98974.16;;;4.09;79.07
65872;BME280;52653;50.080;21.992;2023-04-22T00:48:32;98975.98;;;4.05;78.93
65872;BME280;52653;50.080;21.992;2023-04-22T00:51:05;98978.20;;;4.02;79.03
65872;BME280;52653;50.080;21.992;2023-04-22T00:53:51;98975.90;;;3.99;78.90
65872;BME280;52653;50.080;21.992;2023-04-22T00:56:25;98977.09;;;3.95;78.92
65872;BME280;52653;50.080;21.992;2023-04-22T00:59:01;98979.11;;;3.93;78.93
65872;BME280;52653;50.080;21.992;2023-04-22T01:01:54;98973.50;;;3.90;79.10
65872;BME280;52653;50.080;21.992;2023-04-22T01:04:47;98979.73;;;3.87;79.23
65872;BME280;52653;50.080;21.992;2023-04-22T01:07:40;98978.30;;;3.84;79.26
65872;BME280;52653;50.080;21.992;2023-04-22T01:10:33;98982.27;;;3.82;79.46
65872;BME280;52653;50.080;21.992;2023-04-22T01:13:18;98975.95;;;3.80;79.51
65872;BME280;52653;50.080;21.992;2023-04-22T01:15:51;98978.02;;;3.79;79.49
65872;BME280;52653;50.080;21.992;2023-04-22T01:18:28;98980.25;;;3.77;79.55
65872;BME280;52653;50.080;21.992;2023-04-22T01:21:11;98982.30;;;3.74;79.66
65872;BME280;52653;50.080;21.992;2023-04-22T01:23:56;98980.70;;;3.72;79.74
65872;BME280;52653;50.080;21.992;2023-04-22T01:26:31;98979.29;;;3.70;79.73
65872;BME280;52653;50.080;21.992;2023-04-22T01:29:05;98980.64;;;3.68;79.77
65872;BME280;52653;50.080;21.992;2023-04-22T01:31:58;98978.34;;;3.66;79.94
65872;BME280;52653;50.080;21.992;2023-04-22T01:34:45;98988.02;;;3.64;79.87
65872;BME280;52653;50.080;21.992;2023-04-22T01:37:39;98988.00;;;3.62;80.06
65872;BME280;52653;50.080;21.992;2023-04-22T01:40:26;98984.84;;;3.60;80.05
65872;BME280;52653;50.080;21.992;2023-04-22T01:43:19;98990.16;;;3.56;80.01
65872;BME280;52653;50.080;21.992;2023-04-22T01:46:12;98985.92;;;3.52;79.91
65872;BME280;52653;50.080;21.992;2023-04-22T01:49:06;98988.29;;;3.48;80.12
65872;BME280;52653;50.080;21.992;2023-04-22T01:51:59;98989.09;;;3.44;80.11
65872;BME280;52653;50.080;21.992;2023-04-22T01:54:52;98986.39;;;3.39;80.20
65872;BME280;52653;50.080;21.992;2023-04-22T01:57:45;98991.02;;;3.35;80.37
65872;BME280;52653;50.080;21.992;2023-04-22T02:00:38;98987.66;;;3.31;80.54
65872;BME280;52653;50.080;21.992;2023-04-22T02:03:32;98991.39;;;3.28;80.73
65872;BME280;52653;50.080;21.992;2023-04-22T02:06:25;98992.37;;;3.24;80.73
65872;BME280;52653;50.080;21.992;2023-04-22T02:09:11;98995.09;;;3.20;80.93
65872;BME280;52653;50.080;21.992;2023-04-22T02:12:04;98993.61;;;3.16;80.79
65872;BME280;52653;50.080;21.992;2023-04-22T02:14:57;98992.84;;;3.12;80.99
65872;BME280;52653;50.080;21.992;2023-04-22T02:17:50;98989.30;;;3.08;81.18
65872;BME280;52653;50.080;21.992;2023-04-22T02:20:41;98990.60;;;3.04;81.34
65872;BME280;52653;50.080;21.992;2023-04-22T02:23:35;98988.29;;;3.01;81.40
65872;BME280;52653;50.080;21.992;2023-04-22T02:26:18;98986.14;;;2.96;81.44
65872;BME280;52653;50.080;21.992;2023-04-22T02:29:11;98988.36;;;2.93;81.53
65872;BME280;52653;50.080;21.992;2023-04-22T02:31:53;98989.86;;;2.91;81.58
65872;BME280;52653;50.080;21.992;2023-04-22T02:34:46;98988.42;;;2.89;81.79
65872;BME280;52653;50.080;21.992;2023-04-22T02:37:39;98987.00;;;2.86;81.94
65872;BME280;52653;50.080;21.992;2023-04-22T02:40:32;98989.89;;;2.84;82.02
65872;BME280;52653;50.080;21.992;2023-04-22T02:43:14;98988.45;;;2.80;82.03
65872;BME280;52653;50.080;21.992;2023-04-22T02:46:09;98985.96;;;2.79;82.13
65872;BME280;52653;50.080;21.992;2023-04-22T02:49:03;98986.45;;;2.76;82.32
65872;BME280;52653;50.080;21.992;2023-04-22T02:51:57;98986.75;;;2.74;82.41
65872;BME280;52653;50.080;21.992;2023-04-22T02:54:50;98990.00;;;2.72;82.17
65872;BME280;52653;50.080;21.992;2023-04-22T02:57:43;98987.19;;;2.69;82.43
65872;BME280;52653;50.080;21.992;2023-04-22T03:00:37;98987.50;;;2.68;82.48
65872;BME280;52653;50.080;21.992;2023-04-22T03:03:30;98988.64;;;2.65;82.56
65872;BME280;52653;50.080;21.992;2023-04-22T03:06:23;98988.59;;;2.62;82.56
65872;BME280;52653;50.080;21.992;2023-04-22T03:09:14;98991.00;;;2.61;82.67
65872;BME280;52653;50.080;21.992;2023-04-22T03:12:10;98990.10;;;2.59;82.85
65872;BME280;52653;50.080;21.992;2023-04-22T03:15:03;98991.80;;;2.57;82.92
65872;BME280;52653;50.080;21.992;2023-04-22T03:17:56;98997.65;;;2.56;83.26
65872;BME280;52653;50.080;21.992;2023-04-22T03:20:50;99000.38;;;2.54;83.41
65872;BME280;52653;50.080;21.992;2023-04-22T03:23:43;99003.47;;;2.54;83.67
65872;BME280;52653;50.080;21.992;2023-04-22T03:26:36;99005.41;;;2.55;83.65
65872;BME280;52653;50.080;21.992;2023-04-22T03:29:29;99003.89;;;2.56;83.88
65872;BME280;52653;50.080;21.992;2023-04-22T03:32:15;99005.80;;;2.57;83.82
65872;BME280;52653;50.080;21.992;2023-04-22T03:35:09;99009.66;;;2.59;83.93
65872;BME280;52653;50.080;21.992;2023-04-22T03:38:02;99006.08;;;2.62;83.94
65872;BME280;52653;50.080;21.992;2023-04-22T03:40:55;99008.56;;;2.65;83.84
65872;BME280;52653;50.080;21.992;2023-04-22T03:43:51;99006.77;;;2.70;84.09
65872;BME280;52653;50.080;21.992;2023-04-22T03:46:44;99009.27;;;2.75;84.05
65872;BME280;52653;50.080;21.992;2023-04-22T03:49:38;99014.43;;;2.81;84.02
65872;BME280;52653;50.080;21.992;2023-04-22T03:52:31;99014.52;;;2.86;84.10
65872;BME280;52653;50.080;21.992;2023-04-22T03:55:24;99016.90;;;2.92;83.95
65872;BME280;52653;50.080;21.992;2023-04-22T03:58:18;99019.45;;;2.99;83.97
65872;BME280;52653;50.080;21.992;2023-04-22T04:01:11;99015.77;;;3.06;83.90
65872;BME280;52653;50.080;21.992;2023-04-22T04:04:03;99017.30;;;3.13;83.66
65872;BME280;52653;50.080;21.992;2023-04-22T04:07:08;99022.63;;;3.20;83.71
65872;BME280;52653;50.080;21.992;2023-04-22T04:10:00;99023.48;;;3.29;83.53
65872;BME280;52653;50.080;21.992;2023-04-22T04:12:53;99022.41;;;3.37;83.55
65872;BME280;52653;50.080;21.992;2023-04-22T04:15:46;99025.86;;;3.45;83.45
65872;BME280;52653;50.080;21.992;2023-04-22T04:18:39;99024.07;;;3.53;83.35
65872;BME280;52653;50.080;21.992;2023-04-22T04:21:31;99026.14;;;3.62;83.25
65872;BME280;52653;50.080;21.992;2023-04-22T04:24:24;99028.20;;;3.71;83.15
65872;BME280;52653;50.080;21.992;2023-04-22T04:27:18;99026.96;;;3.80;83.09
65872;BME280;52653;50.080;21.992;2023-04-22T04:30:12;99031.61;;;3.89;82.81
65872;BME280;52653;50.080;21.992;2023-04-22T04:33:04;99031.63;;;4.01;82.70
65872;BME280;52653;50.080;21.992;2023-04-22T04:35:58;99031.31;;;4.14;82.56
65872;BME280;52653;50.080;21.992;2023-04-22T04:38:51;99033.42;;;4.27;82.62
65872;BME280;52653;50.080;21.992;2023-04-22T04:41:46;99036.58;;;4.42;82.41
65872;BME280;52653;50.080;21.992;2023-04-22T04:44:39;99036.42;;;4.56;82.38
65872;BME280;52653;50.080;21.992;2023-04-22T04:47:32;99039.23;;;4.71;82.15
65872;BME280;52653;50.080;21.992;2023-04-22T04:50:27;99036.13;;;4.87;81.96
65872;BME280;52653;50.080;21.992;2023-04-22T04:53:20;99040.84;;;5.05;81.93
65872;BME280;52653;50.080;21.992;2023-04-22T04:56:15;99039.86;;;5.24;81.70
65872;BME280;52653;50.080;21.992;2023-04-22T04:59:07;99037.30;;;5.45;81.44
65872;BME280;52653;50.080;21.992;2023-04-22T05:02:01;99040.33;;;5.72;80.96
65872;BME280;52653;50.080;21.992;2023-04-22T05:04:53;99048.17;;;6.13;80.28
65872;BME280;52653;50.080;21.992;2023-04-22T05:07:48;99057.20;;;6.63;79.52
65872;BME280;52653;50.080;21.992;2023-04-22T05:10:42;99056.00;;;7.00;78.45
65872;BME280;52653;50.080;21.992;2023-04-22T05:13:35;99058.02;;;7.26;77.78
65872;BME280;52653;50.080;21.992;2023-04-22T05:16:21;99058.40;;;7.41;77.25
65872;BME280;52653;50.080;21.992;2023-04-22T05:19:15;99056.69;;;7.58;77.08
65872;BME280;52653;50.080;21.992;2023-04-22T05:22:02;99059.35;;;7.80;76.56
65872;BME280;52653;50.080;21.992;2023-04-22T05:24:54;99057.27;;;8.01;74.96
65872;BME280;52653;50.080;21.992;2023-04-22T05:27:47;99052.88;;;8.21;74.23
65872;BME280;52653;50.080;21.992;2023-04-22T05:30:40;99053.23;;;8.45;73.72
65872;BME280;52653;50.080;21.992;2023-04-22T05:33:35;99056.67;;;8.73;73.29
65872;BME280;52653;50.080;21.992;2023-04-22T05:36:10;99059.04;;;8.99;72.25
65872;BME280;52653;50.080;21.992;2023-04-22T05:39:03;99064.71;;;9.22;71.30
65872;BME280;52653;50.080;21.992;2023-04-22T05:41:57;99060.55;;;9.49;70.11
65872;BME280;52653;50.080;21.992;2023-04-22T05:44:42;99056.88;;;9.74;69.88
65872;BME280;52653;50.080;21.992;2023-04-22T05:47:35;99058.95;;;10.03;68.99
65872;BME280;52653;50.080;21.992;2023-04-22T05:50:31;99066.14;;;10.26;65.83
65872;BME280;52653;50.080;21.992;2023-04-22T05:53:08;99063.67;;;10.30;63.67
65872;BME280;52653;50.080;21.992;2023-04-22T05:55:41;99066.63;;;10.32;64.15
65872;BME280;52653;50.080;21.992;2023-04-22T05:58:14;99064.15;;;10.34;64.89
65872;BME280;52653;50.080;21.992;2023-04-22T06:01:04;99064.82;;;10.56;65.27
65872;BME280;52653;50.080;21.992;2023-04-22T06:03:59;99062.95;;;10.83;64.34
65872;BME280;52653;50.080;21.992;2023-04-22T06:06:36;99059.93;;;11.01;62.81
65872;BME280;52653;50.080;21.992;2023-04-22T06:09:19;99062.75;;;11.14;60.34
65872;BME280;52653;50.080;21.992;2023-04-22T06:11:52;99061.91;;;11.26;60.17
65872;BME280;52653;50.080;21.992;2023-04-22T06:14:27;99058.02;;;11.41;60.48
65872;BME280;52653;50.080;21.992;2023-04-22T06:17:03;99061.98;;;11.59;60.09
65872;BME280;52653;50.080;21.992;2023-04-22T06:19:47;99059.46;;;11.76;59.23
65872;BME280;52653;50.080;21.992;2023-04-22T06:22:23;99058.77;;;11.89;58.41
65872;BME280;52653;50.080;21.992;2023-04-22T06:24:59;99058.02;;;12.02;59.03
65872;BME280;52653;50.080;21.992;2023-04-22T06:27:32;99055.04;;;12.13;57.60
65872;BME280;52653;50.080;21.992;2023-04-22T06:30:26;99058.09;;;12.20;56.96
65872;BME280;52653;50.080;21.992;2023-04-22T06:33:19;99060.35;;;12.22;56.24
65872;BME280;52653;50.080;21.992;2023-04-22T06:36:13;99065.07;;;12.34;56.61
65872;BME280;52653;50.080;21.992;2023-04-22T06:39:06;99064.20;;;12.44;56.40
65872;BME280;52653;50.080;21.992;2023-04-22T06:42:04;99065.02;;;12.56;57.21
65872;BME280;52653;50.080;21.992;2023-04-22T06:44:56;99061.70;;;12.74;56.93
65872;BME280;52653;50.080;21.992;2023-04-22T06:47:57;99060.27;;;12.94;56.89
65872;BME280;52653;50.080;21.992;2023-04-22T06:50:50;99056.14;;;13.16;56.89
65872;BME280;52653;50.080;21.992;2023-04-22T06:53:42;99053.80;;;13.36;56.57
65872;BME280;52653;50.080;21.992;2023-04-22T06:56:35;99053.75;;;13.62;56.63
65872;BME280;52653;50.080;21.992;2023-04-22T06:59:13;99055.71;;;13.76;55.47
65872;BME280;52653;50.080;21.992;2023-04-22T07:02:07;99060.42;;;13.86;54.48
65872;BME280;52653;50.080;21.992;2023-04-22T07:05:00;99061.59;;;13.89;54.01
65872;BME280;52653;50.080;21.992;2023-04-22T07:07:52;99060.00;;;13.97;54.24
65872;BME280;52653;50.080;21.992;2023-04-22T07:10:46;99058.06;;;14.04;53.87
65872;BME280;52653;50.080;21.992;2023-04-22T07:13:45;99059.98;;;14.05;54.20
65872;BME280;52653;50.080;21.992;2023-04-22T07:16:37;99061.35;;;14.14;53.86
65872;BME280;52653;50.080;21.992;2023-04-22T07:19:31;99061.07;;;14.25;53.76
65872;BME280;52653;50.080;21.992;2023-04-22T07:22:07;99060.27;;;14.37;53.15
65872;BME280;52653;50.080;21.992;2023-04-22T07:24:40;99059.20;;;14.44;53.04
65872;BME280;52653;50.080;21.992;2023-04-22T07:27:24;99070.35;;;14.57;53.38
65872;BME280;52653;50.080;21.992;2023-04-22T07:29:56;99064.97;;;14.73;54.11
65872;BME280;52653;50.080;21.992;2023-04-22T07:32:34;99065.40;;;14.96;53.43
65872;BME280;52653;50.080;21.992;2023-04-22T07:35:10;99064.66;;;15.10;51.77
65872;BME280;52653;50.080;21.992;2023-04-22T07:37:43;99061.06;;;15.24;52.18
65872;BME280;52653;50.080;21.992;2023-04-22T07:40:16;99059.81;;;15.43;52.40
65872;BME280;52653;50.080;21.992;2023-04-22T07:42:48;99063.25;;;15.59;51.10
65872;BME280;52653;50.080;21.992;2023-04-22T07:45:31;99064.77;;;15.68;49.84
65872;BME280;52653;50.080;21.992;2023-04-22T07:48:07;99059.79;;;15.85;50.82
65872;BME280;52653;50.080;21.992;2023-04-22T07:51:06;99058.08;;;16.16;50.76
65872;BME280;52653;50.080;21.992;2023-04-22T07:53:39;99057.48;;;16.29;49.16
65872;BME280;52653;50.080;21.992;2023-04-22T07:56:15;99058.09;;;16.42;50.08
65872;BME280;52653;50.080;21.992;2023-04-22T07:58:49;99056.69;;;16.58;49.71
65872;BME280;52653;50.080;21.992;2023-04-22T08:01:22;99056.80;;;16.70;48.95
65872;BME280;52653;50.080;21.992;2023-04-22T08:04:16;99055.21;;;16.86;49.49
65872;BME280;52653;50.080;21.992;2023-04-22T08:06:52;99053.95;;;17.01;48.95
65872;BME280;52653;50.080;21.992;2023-04-22T08:09:26;99056.94;;;17.07;47.88
65872;BME280;52653;50.080;21.992;2023-04-22T08:12:09;99059.37;;;17.13;47.90
65872;BME280;52653;50.080;21.992;2023-04-22T08:15:00;99056.54;;;17.12;45.88
65872;BME280;52653;50.080;21.992;2023-04-22T08:17:45;99054.95;;;17.13;46.60
65872;BME280;52653;50.080;21.992;2023-04-22T08:20:39;99052.11;;;17.27;45.51
65872;BME280;52653;50.080;21.992;2023-04-22T08:23:15;99051.36;;;17.37;44.73
65872;BME280;52653;50.080;21.992;2023-04-22T08:25:47;99055.00;;;17.53;43.46
65872;BME280;52653;50.080;21.992;2023-04-22T08:28:25;99059.17;;;17.65;42.55
65872;BME280;52653;50.080;21.992;2023-04-22T08:30:57;99058.64;;;17.84;43.68
65872;BME280;52653;50.080;21.992;2023-04-22T08:33:30;99058.73;;;18.08;42.16
65872;BME280;52653;50.080;21.992;2023-04-22T08:36:06;99056.48;;;18.19;42.77
65872;BME280;52653;50.080;21.992;2023-04-22T08:38:40;99057.48;;;18.42;42.90
65872;BME280;52653;50.080;21.992;2023-04-22T08:41:13;99055.15;;;18.64;42.87
65872;BME280;52653;50.080;21.992;2023-04-22T08:43:46;99052.98;;;18.82;42.17
65872;BME280;52653;50.080;21.992;2023-04-22T08:46:19;99054.53;;;18.95;40.98
65872;BME280;52653;50.080;21.992;2023-04-22T08:48:54;99059.41;;;19.01;38.90
65872;BME280;52653;50.080;21.992;2023-04-22T08:51:31;99054.74;;;18.86;37.76
65872;BME280;52653;50.080;21.992;2023-04-22T08:54:07;99054.35;;;18.83;38.76
65872;BME280;52653;50.080;21.992;2023-04-22T08:56:42;99055.24;;;18.87;39.65
65872;BME280;52653;50.080;21.992;2023-04-22T08:59:16;99053.25;;;18.96;39.65
65872;BME280;52653;50.080;21.992;2023-04-22T09:01:53;99049.58;;;18.98;38.61
65872;BME280;52653;50.080;21.992;2023-04-22T09:04:26;99047.64;;;18.94;38.52
65872;BME280;52653;50.080;21.992;2023-04-22T09:07:00;99050.42;;;18.91;38.78
65872;BME280;52653;50.080;21.992;2023-04-22T09:09:33;99052.63;;;18.81;37.63
65872;BME280;52653;50.080;21.992;2023-04-22T09:12:09;99046.11;;;18.85;39.01
65872;BME280;52653;50.080;21.992;2023-04-22T09:14:42;99047.71;;;18.96;38.42
65872;BME280;52653;50.080;21.992;2023-04-22T09:17:17;99046.17;;;19.07;37.54
65872;BME280;52653;50.080;21.992;2023-04-22T09:19:57;99044.27;;;19.22;37.67
65872;BME280;52653;50.080;21.992;2023-04-22T09:22:38;99041.23;;;19.45;37.41
65872;BME280;52653;50.080;21.992;2023-04-22T09:25:18;99038.67;;;19.77;36.90
65872;BME280;52653;50.080;21.992;2023-04-22T09:27:52;99033.14;;;20.14;37.73
65872;BME280;52653;50.080;21.992;2023-04-22T09:30:27;99030.56;;;20.48;37.26
65872;BME280;52653;50.080;21.992;2023-04-22T09:33:01;99029.66;;;20.76;36.11
65872;BME280;52653;50.080;21.992;2023-04-22T09:35:36;99027.22;;;21.02;35.49
65872;BME280;52653;50.080;21.992;2023-04-22T09:38:10;99023.40;;;21.20;34.87
65872;BME280;52653;50.080;21.992;2023-04-22T09:40:44;99024.73;;;21.22;34.17
65872;BME280;52653;50.080;21.992;2023-04-22T09:43:19;99018.59;;;21.20;34.53
65872;BME280;52653;50.080;21.992;2023-04-22T09:45:52;99016.00;;;21.22;34.50
65872;BME280;52653;50.080;21.992;2023-04-22T09:48:24;99017.06;;;21.15;34.77
65872;BME280;52653;50.080;21.992;2023-04-22T09:50:57;99015.52;;;21.14;33.54
65872;BME280;52653;50.080;21.992;2023-04-22T09:53:38;99009.98;;;21.11;33.35
65872;BME280;52653;50.080;21.992;2023-04-22T09:56:11;99011.70;;;20.98;32.95
65872;BME280;52653;50.080;21.992;2023-04-22T09:58:43;99012.67;;;20.77;32.31
65872;BME280;52653;50.080;21.992;2023-04-22T10:01:16;99010.40;;;20.55;32.68
65872;BME280;52653;50.080;21.992;2023-04-22T10:03:49;99010.02;;;20.35;32.48
65872;BME280;52653;50.080;21.992;2023-04-22T10:06:23;99010.02;;;20.27;33.08
65872;BME280;52653;50.080;21.992;2023-04-22T10:08:56;99005.86;;;20.18;32.66
65872;BME280;52653;50.080;21.992;2023-04-22T10:11:30;99009.44;;;20.07;32.73
65872;BME280;52653;50.080;21.992;2023-04-22T10:14:03;99009.36;;;19.97;32.43
65872;BME280;52653;50.080;21.992;2023-04-22T10:16:38;99009.98;;;19.89;32.85
65872;BME280;52653;50.080;21.992;2023-04-22T10:19:13;99008.16;;;19.82;32.57
65872;BME280;52653;50.080;21.992;2023-04-22T10:21:49;99008.50;;;19.83;32.95
65872;BME280;52653;50.080;21.992;2023-04-22T10:24:33;99003.61;;;19.91;32.81
65872;BME280;52653;50.080;21.992;2023-04-22T10:27:25;99004.19;;;19.98;32.69
65872;BME280;52653;50.080;21.992;2023-04-22T10:30:05;99001.63;;;20.03;32.24
65872;BME280;52653;50.080;21.992;2023-04-22T10:32:38;98998.91;;;20.14;32.48
65872;BME280;52653;50.080;21.992;2023-04-22T10:35:13;98996.60;;;20.22;32.49
65872;BME280;52653;50.080;21.992;2023-04-22T10:37:48;98995.62;;;20.34;32.39
65872;BME280;52653;50.080;21.992;2023-04-22T10:40:24;98994.91;;;20.45;32.48
65872;BME280;52653;50.080;21.992;2023-04-22T10:43:20;98992.58;;;20.59;32.21
65872;BME280;52653;50.080;21.992;2023-04-22T10:46:58;98995.98;;;20.76;31.08
65872;BME280;52653;50.080;21.992;2023-04-22T10:49:31;98994.27;;;20.74;29.82
65872;BME280;52653;50.080;21.992;2023-04-22T10:52:05;98989.35;;;20.76;30.08
65872;BME280;52653;50.080;21.992;2023-04-22T10:55:02;98995.09;;;20.89;30.42
65872;BME280;52653;50.080;21.992;2023-04-22T10:57:42;98996.66;;;21.06;29.72
65872;BME280;52653;50.080;21.992;2023-04-22T11:00:27;98996.84;;;21.13;28.70
65872;BME280;52653;50.080;21.992;2023-04-22T11:03:23;98993.61;;;21.03;27.83
65872;BME280;52653;50.080;21.992;2023-04-22T11:06:17;98992.13;;;21.01;28.55
65872;BME280;52653;50.080;21.992;2023-04-22T11:09:09;98992.73;;;21.09;28.38
65872;BME280;52653;50.080;21.992;2023-04-22T11:15:10;98992.40;;;21.77;27.65
65872;BME280;52653;50.080;21.992;2023-04-22T11:17:48;98987.59;;;22.11;27.12
65872;BME280;52653;50.080;21.992;2023-04-22T11:20:22;98987.52;;;22.58;27.96
65872;BME280;52653;50.080;21.992;2023-04-22T11:22:56;98985.58;;;23.01;28.58
65872;BME280;52653;50.080;21.992;2023-04-22T11:25:32;98982.60;;;23.43;27.86
65872;BME280;52653;50.080;21.992;2023-04-22T11:28:05;98978.02;;;23.72;26.34
65872;BME280;52653;50.080;21.992;2023-04-22T11:30:37;98975.95;;;23.93;25.71
65872;BME280;52653;50.080;21.992;2023-04-22T11:33:15;98974.98;;;24.00;26.70
65872;BME280;52653;50.080;21.992;2023-04-22T11:35:49;98971.26;;;24.07;26.71
65872;BME280;52653;50.080;21.992;2023-04-22T11:38:22;98975.17;;;24.16;25.90
65872;BME280;52653;50.080;21.992;2023-04-22T11:40:55;98975.52;;;24.24;26.95
65872;BME280;52653;50.080;21.992;2023-04-22T11:43:28;98970.98;;;24.36;26.43
65872;BME280;52653;50.080;21.992;2023-04-22T11:46:05;98969.46;;;24.37;24.21
65872;BME280;52653;50.080;21.992;2023-04-22T11:48:38;98968.70;;;24.27;24.25
65872;BME280;52653;50.080;21.992;2023-04-22T11:51:14;98970.27;;;24.14;24.64
65872;BME280;52653;50.080;21.992;2023-04-22T11:53:52;98969.64;;;24.07;25.82
65872;BME280;52653;50.080;21.992;2023-04-22T11:56:28;98971.77;;;23.97;25.64
65872;BME280;52653;50.080;21.992;2023-04-22T11:59:00;98963.88;;;23.92;26.71
65872;BME280;52653;50.080;21.992;2023-04-22T12:01:33;98966.58;;;23.94;26.76
65872;BME280;52653;50.080;21.992;2023-04-22T12:04:06;98962.23;;;23.95;27.04
65872;BME280;52653;50.080;21.992;2023-04-22T12:06:46;98960.59;;;23.95;27.28
65872;BME280;52653;50.080;21.992;2023-04-22T12:09:18;98963.26;;;23.95;26.96
65872;BME280;52653;50.080;21.992;2023-04-22T12:11:55;98962.41;;;24.00;27.79
65872;BME280;52653;50.080;21.992;2023-04-22T12:14:32;98963.79;;;24.06;27.02
65872;BME280;52653;50.080;21.992;2023-04-22T12:17:07;98964.20;;;24.05;26.08
65872;BME280;52653;50.080;21.992;2023-04-22T12:19:47;98961.65;;;24.09;26.25
65872;BME280;52653;50.080;21.992;2023-04-22T12:22:23;98958.47;;;24.00;27.48
65872;BME280;52653;50.080;21.992;2023-04-22T12:24:59;98958.50;;;23.78;26.41
65872;BME280;52653;50.080;21.992;2023-04-22T12:27:32;98956.10;;;23.54;27.20
65872;BME280;52653;50.080;21.992;2023-04-22T12:30:15;98952.11;;;23.52;27.07
65872;BME280;52653;50.080;21.992;2023-04-22T12:32:48;98954.94;;;23.42;26.74
65872;BME280;52653;50.080;21.992;2023-04-22T12:35:22;98952.75;;;23.29;27.28
65872;BME280;52653;50.080;21.992;2023-04-22T12:37:58;98951.14;;;23.17;26.60
65872;BME280;52653;50.080;21.992;2023-04-22T12:40:32;98949.10;;;23.16;27.19
65872;BME280;52653;50.080;21.992;2023-04-22T12:43:06;98948.63;;;23.20;26.99
65872;BME280;52653;50.080;21.992;2023-04-22T12:45:38;98949.63;;;23.16;27.15
65872;BME280;52653;50.080;21.992;2023-04-22T12:48:15;98947.94;;;23.23;27.81
65872;BME280;52653;50.080;21.992;2023-04-22T12:50:48;98946.05;;;23.27;28.62
65872;BME280;52653;50.080;21.992;2023-04-22T12:53:24;98940.70;;;23.24;28.33
65872;BME280;52653;50.080;21.992;2023-04-22T12:55:57;98942.15;;;23.12;27.58
65872;BME280;52653;50.080;21.992;2023-04-22T12:58:29;98939.70;;;23.06;28.17
65872;BME280;52653;50.080;21.992;2023-04-22T13:01:02;98940.20;;;23.01;27.30
65872;BME280;52653;50.080;21.992;2023-04-22T13:03:38;98943.29;;;23.05;27.10
65872;BME280;52653;50.080;21.992;2023-04-22T13:06:11;98937.71;;;23.06;27.37
65872;BME280;52653;50.080;21.992;2023-04-22T13:08:48;98935.60;;;23.03;27.32
65872;BME280;52653;50.080;21.992;2023-04-22T13:11:25;98933.40;;;22.92;27.43
65872;BME280;52653;50.080;21.992;2023-04-22T13:14:00;98927.98;;;22.84;27.46
65872;BME280;52653;50.080;21.992;2023-04-22T13:16:33;98927.30;;;22.84;27.42
65872;BME280;52653;50.080;21.992;2023-04-22T13:19:09;98927.65;;;22.87;28.16
65872;BME280;52653;50.080;21.992;2023-04-22T13:21:42;98928.04;;;22.83;28.70
65872;BME280;52653;50.080;21.992;2023-04-22T13:24:18;98927.34;;;22.77;28.70
65872;BME280;52653;50.080;21.992;2023-04-22T13:26:51;98927.50;;;22.71;28.50
65872;BME280;52653;50.080;21.992;2023-04-22T13:29:26;98929.46;;;22.54;27.19
65872;BME280;52653;50.080;21.992;2023-04-22T13:31:59;98929.33;;;22.44;27.39
65872;BME280;52653;50.080;21.992;2023-04-22T13:34:37;98926.80;;;22.33;28.10
65872;BME280;52653;50.080;21.992;2023-04-22T13:37:13;98920.59;;;22.15;27.52
65872;BME280;52653;50.080;21.992;2023-04-22T13:39:48;98917.70;;;21.93;28.91
65872;BME280;52653;50.080;21.992;2023-04-22T13:42:21;98920.38;;;21.81;28.61
65872;BME280;52653;50.080;21.992;2023-04-22T13:44:56;98918.54;;;21.55;28.15
65872;BME280;52653;50.080;21.992;2023-04-22T13:47:36;98919.09;;;21.32;28.87
65872;BME280;52653;50.080;21.992;2023-04-22T13:50:10;98915.52;;;21.26;29.57
65872;BME280;52653;50.080;21.992;2023-04-22T13:52:42;98917.54;;;21.28;29.07
65872;BME280;52653;50.080;21.992;2023-04-22T13:55:16;98915.45;;;21.27;28.89
65872;BME280;52653;50.080;21.992;2023-04-22T13:57:54;98919.46;;;21.23;28.46
65872;BME280;52653;50.080;21.992;2023-04-22T14:00:27;98918.77;;;21.29;28.78
65872;BME280;52653;50.080;21.992;2023-04-22T14:03:00;98916.48;;;21.44;29.99
65872;BME280;52653;50.080;21.992;2023-04-22T14:05:36;98911.14;;;21.53;29.92
65872;BME280;52653;50.080;21.992;2023-04-22T14:08:10;98916.31;;;21.50;29.28
65872;BME280;52653;50.080;21.992;2023-04-22T14:10:43;98914.35;;;21.50;29.58
65872;BME280;52653;50.080;21.992;2023-04-22T14:13:16;98911.89;;;21.58;29.59
65872;BME280;52653;50.080;21.992;2023-04-22T14:15:49;98911.40;;;21.67;28.61
65872;BME280;52653;50.080;21.992;2023-04-22T14:18:21;98913.26;;;21.75;28.28
65872;BME280;52653;50.080;21.992;2023-04-22T14:20:56;98912.30;;;21.73;28.20